createdAt,value
2019-05-30T00:00:37.085Z,5.33
2019-05-30T00:02:43.753Z,5.87
2019-05-30T00:04:50.306Z,3.67
2019-05-30T00:06:56.991Z,4.95
2019-05-30T00:09:07.872Z,4.28
2019-05-30T00:11:14.437Z,2.92
2019-05-30T00:13:21.141Z,4.42
2019-05-30T00:15:27.713Z,4.70
2019-05-30T00:17:34.198Z,6.80
2019-05-30T00:19:40.668Z,4.05
2019-05-30T00:21:47.156Z,3.02
2019-05-30T00:23:53.540Z,2.77
2019-05-30T00:26:01.276Z,4.70
2019-05-30T00:28:08.864Z,5.45
2019-05-30T00:30:24.486Z,7.05
2019-05-30T00:32:25.343Z,3.77
2019-05-30T00:34:31.951Z,6.62
2019-05-30T00:36:38.597Z,4.60
2019-05-30T00:38:46.133Z,6.42
2019-05-30T00:40:52.670Z,3.92
2019-05-30T00:43:00.193Z,7.28
2019-05-30T00:45:19.806Z,3.33
2019-05-30T00:47:16.436Z,9.20
2019-05-30T00:49:22.919Z,2.98
2019-05-30T00:51:29.393Z,5.83
2019-05-30T00:53:35.920Z,5.58
2019-05-30T00:55:42.398Z,6.37
2019-05-30T00:57:49.989Z,8.30
2019-05-30T00:59:56.819Z,4.40
2019-05-30T01:02:03.403Z,3.85
2019-05-30T01:04:09.927Z,4.97
2019-05-30T01:06:16.478Z,6.20
2019-05-30T01:08:22.930Z,5.85
2019-05-30T01:10:29.540Z,6.08
2019-05-30T01:12:36.106Z,8.23
2019-05-30T01:14:42.855Z,4.12
2019-05-30T01:16:49.294Z,5.05
2019-05-30T01:18:56.925Z,6.42
2019-05-30T01:21:03.894Z,5.83
2019-05-30T01:23:10.382Z,5.87
2019-05-30T01:25:17.120Z,4.95
2019-05-30T01:27:23.516Z,6.55
2019-05-30T01:29:29.900Z,5.60
2019-05-30T01:31:36.458Z,2.83
2019-05-30T01:33:42.996Z,8.05
2019-05-30T01:35:49.479Z,5.42
2019-05-30T01:37:55.875Z,6.87
2019-05-30T01:40:02.353Z,7.25
2019-05-30T01:42:09.980Z,5.97
2019-05-30T01:44:16.452Z,5.75
2019-05-30T01:46:22.906Z,5.12
2019-05-30T01:48:29.366Z,5.33
2019-05-30T01:50:35.918Z,3.47
2019-05-30T01:52:42.437Z,7.65
2019-05-30T01:54:49.985Z,6.40
2019-05-30T01:56:56.384Z,8.50
2019-05-30T01:59:02.922Z,6.58
2019-05-30T02:01:22.364Z,5.90
2019-05-30T02:03:17.680Z,5.90
2019-05-30T02:05:25.267Z,8.53
2019-05-30T02:07:31.757Z,6.92
2019-05-30T02:09:38.345Z,7.03
2019-05-30T02:11:44.869Z,5.85
2019-05-30T02:13:51.277Z,5.50
2019-05-30T02:15:57.729Z,5.92
2019-05-30T02:18:05.617Z,5.28
2019-05-30T02:20:12.971Z,5.78
2019-05-30T02:22:19.414Z,5.45
2019-05-30T02:24:25.835Z,4.70
2019-05-30T02:26:32.228Z,5.28
2019-05-30T02:28:38.724Z,4.60
2019-05-30T02:30:45.101Z,6.08
2019-05-30T02:32:51.550Z,5.10
2019-05-30T02:34:58.007Z,8.38
2019-05-30T02:37:06.094Z,7.78
2019-05-30T02:39:12.942Z,8.00
2019-05-30T02:41:19.704Z,10.82
2019-05-30T02:43:26.217Z,14.03
2019-05-30T02:45:32.773Z,10.93
2019-05-30T02:47:39.178Z,8.55
2019-05-30T02:49:45.683Z,8.20
2019-05-30T02:51:52.310Z,9.50
2019-05-30T02:53:58.863Z,6.28
2019-05-30T02:56:05.998Z,8.08
2019-05-30T02:58:14.018Z,5.87
2019-05-30T03:00:25.088Z,3.92
2019-05-30T03:02:31.561Z,6.22
2019-05-30T03:04:38.005Z,6.85
2019-05-30T03:06:44.827Z,5.95
2019-05-30T03:08:51.366Z,5.33
2019-05-30T03:10:57.953Z,6.55
2019-05-30T03:13:06.299Z,6.58
2019-05-30T03:15:15.517Z,5.08
2019-05-30T03:17:22.607Z,6.05
2019-05-30T03:19:29.159Z,4.17
2019-05-30T03:21:35.687Z,6.67
2019-05-30T03:23:42.292Z,6.42
2019-05-30T03:25:48.882Z,6.90
2019-05-30T03:27:55.424Z,6.03
2019-05-30T03:30:05.102Z,5.67
2019-05-30T03:32:51.423Z,4.80
2019-05-30T03:34:27.588Z,3.72
2019-05-30T03:36:31.365Z,3.47
2019-05-30T03:38:36.489Z,3.87
2019-05-30T03:40:43.194Z,4.67
2019-05-30T03:42:49.987Z,6.12
2019-05-30T03:44:56.518Z,3.05
2019-05-30T03:47:08.631Z,6.45
2019-05-30T03:49:19.787Z,5.72
2019-05-30T03:51:28.786Z,4.90
2019-05-30T03:53:35.827Z,6.90
2019-05-30T03:55:46.818Z,7.95
2019-05-30T03:58:10.028Z,2.85
2019-05-30T04:00:42.434Z,6.47
2019-05-30T04:02:59.043Z,5.58
2019-05-30T04:05:14.197Z,3.80
2019-05-30T04:07:24.339Z,4.85
2019-05-30T04:09:34.295Z,7.60
2019-05-30T04:12:03.129Z,4.40
2019-05-30T04:14:15.680Z,3.22
2019-05-30T04:16:22.039Z,4.45
2019-05-30T04:18:28.504Z,4.47
2019-05-30T04:20:37.224Z,5.37
2019-05-30T04:22:43.627Z,6.05
2019-05-30T04:24:50.626Z,5.00
2019-05-30T04:26:57.040Z,3.20
2019-05-30T04:29:03.574Z,8.25
2019-05-30T04:31:10.143Z,4.05
2019-05-30T04:33:29.106Z,9.38
2019-05-30T04:35:24.856Z,4.53
2019-05-30T04:37:31.311Z,4.65
2019-05-30T04:39:37.784Z,6.03
2019-05-30T04:41:44.365Z,5.22
2019-05-30T04:43:50.796Z,5.85
2019-05-30T04:45:57.190Z,6.45
2019-05-30T04:48:03.728Z,3.17
2019-05-30T04:50:12.098Z,2.98
2019-05-30T04:52:23.990Z,4.50
2019-05-30T04:54:26.869Z,6.03
2019-05-30T04:56:33.271Z,12.50
2019-05-30T04:58:42.340Z,9.73
2019-05-30T05:00:48.058Z,3.98
2019-05-30T05:02:54.449Z,7.03
2019-05-30T05:05:00.865Z,11.25
2019-05-30T05:07:07.470Z,18.42
2019-05-30T05:09:14.074Z,11.57
2019-05-30T05:11:24.931Z,5.85
2019-05-30T05:13:29.379Z,5.08
2019-05-30T05:15:35.829Z,7.65
2019-05-30T05:17:42.333Z,10.88
2019-05-30T05:19:48.785Z,7.85
2019-05-30T05:21:55.200Z,6.25
2019-05-30T05:24:01.991Z,6.00
2019-05-30T05:26:08.436Z,4.65
2019-05-30T05:28:15.783Z,6.30
2019-05-30T05:30:22.799Z,6.70
2019-05-30T05:32:29.228Z,6.53
2019-05-30T05:34:35.694Z,7.30
2019-05-30T05:36:42.080Z,5.15
2019-05-30T05:38:48.576Z,6.47
2019-05-30T05:40:55.110Z,11.50
2019-05-30T05:43:01.574Z,12.78
2019-05-30T05:45:09.707Z,10.25
2019-05-30T05:47:18.488Z,6.03
2019-05-30T05:51:31.797Z,10.82
2019-05-30T05:53:38.254Z,3.12
2019-05-30T05:55:44.754Z,8.73
2019-05-30T05:57:51.278Z,5.20
2019-05-30T05:59:57.770Z,6.95
2019-05-30T06:02:04.251Z,10.98
2019-05-30T06:04:13.546Z,7.03
2019-05-30T06:06:19.260Z,5.53
2019-05-30T06:08:25.961Z,4.22
2019-05-30T06:10:32.457Z,6.55
2019-05-30T06:12:38.947Z,7.45
2019-05-30T06:14:45.379Z,4.92
2019-05-30T06:16:53.706Z,7.50
2019-05-30T06:18:59.896Z,7.22
2019-05-30T06:21:06.677Z,4.47
2019-05-30T06:23:13.159Z,5.40
2019-05-30T06:25:24.016Z,8.33
2019-05-30T06:27:28.141Z,7.15
2019-05-30T06:29:34.611Z,7.00
2019-05-30T06:31:41.177Z,6.33
2019-05-30T06:33:47.656Z,7.85
2019-05-30T06:35:54.125Z,10.13
2019-05-30T06:38:00.519Z,6.78
2019-05-30T06:40:08.806Z,6.83
2019-05-30T06:42:15.381Z,12.58
2019-05-30T06:44:21.939Z,7.12
2019-05-30T06:46:28.455Z,11.70
2019-05-30T06:48:35.068Z,10.50
2019-05-30T06:50:41.539Z,8.30
2019-05-30T06:52:48.019Z,4.00
2019-05-30T06:54:54.502Z,4.85
2019-05-30T06:57:01.049Z,4.45
2019-05-30T06:59:07.760Z,10.05
2019-05-30T07:01:14.232Z,7.25
2019-05-30T07:03:22.034Z,4.60
2019-05-30T07:05:30.583Z,3.37
2019-05-30T07:07:37.286Z,5.25
2019-05-30T07:09:44.314Z,10.03
2019-05-30T07:11:50.856Z,7.78
2019-05-30T07:13:57.406Z,11.00
2019-05-30T07:16:03.885Z,8.90
2019-05-30T07:18:10.599Z,8.43
2019-05-30T07:20:19.131Z,5.40
2019-05-30T07:22:25.731Z,4.97
2019-05-30T07:24:32.281Z,16.05
2019-05-30T07:26:38.709Z,4.15
2019-05-30T07:28:45.142Z,6.47
2019-05-30T07:30:51.622Z,5.80
2019-05-30T07:32:58.024Z,5.03
2019-05-30T07:35:07.545Z,6.03
2019-05-30T07:37:14.283Z,4.30
2019-05-30T07:39:20.814Z,8.63
2019-05-30T07:41:27.568Z,11.10
2019-05-30T07:43:35.357Z,7.60
2019-05-30T07:45:45.610Z,4.83
2019-05-30T07:47:50.065Z,7.17
2019-05-30T07:49:56.520Z,9.85
2019-05-30T07:52:02.957Z,6.95
2019-05-30T07:54:09.554Z,4.70
2019-05-30T07:56:15.993Z,4.42
2019-05-30T07:58:22.541Z,9.53
2019-05-30T08:00:29.368Z,5.72
2019-05-30T08:02:35.969Z,7.65
2019-05-30T08:04:42.372Z,3.98
2019-05-30T08:06:48.783Z,5.05
2019-05-30T08:08:55.312Z,5.80
2019-05-30T08:11:09.511Z,5.28
2019-05-30T08:13:09.872Z,3.60
2019-05-30T08:15:16.891Z,7.53
2019-05-30T08:17:23.309Z,6.37
2019-05-30T08:19:29.770Z,4.75
2019-05-30T08:21:38.308Z,8.03
2019-05-30T08:23:44.786Z,5.07
2019-05-30T08:25:51.283Z,5.47
2019-05-30T08:27:57.704Z,6.45
2019-05-30T08:30:10.281Z,5.45
2019-05-30T08:32:16.886Z,6.05
2019-05-30T08:34:23.346Z,6.72
2019-05-30T08:36:30.863Z,8.55
2019-05-30T08:38:37.466Z,3.40
2019-05-30T08:40:44.000Z,5.75
2019-05-30T08:42:50.405Z,5.53
2019-05-30T08:44:56.861Z,7.87
2019-05-30T08:47:03.278Z,4.95
2019-05-30T08:49:09.717Z,8.38
2019-05-30T08:51:16.177Z,8.83
2019-05-30T08:53:22.648Z,3.25
2019-05-30T08:55:30.213Z,7.25
2019-05-30T08:57:36.840Z,4.80
2019-05-30T08:59:44.844Z,10.30
2019-05-30T09:01:53.299Z,8.05
2019-05-30T09:04:00.086Z,6.37
2019-05-30T09:06:06.620Z,7.53
2019-05-30T09:08:13.316Z,10.40
2019-05-30T09:10:19.933Z,8.18
2019-05-30T09:12:26.504Z,8.10
2019-05-30T09:14:33.105Z,5.30
2019-05-30T09:16:39.742Z,8.08
2019-05-30T09:18:47.454Z,6.58
2019-05-30T09:20:54.085Z,6.42
2019-05-30T09:23:00.473Z,4.75
2019-05-30T09:25:13.187Z,6.90
2019-05-30T09:27:19.712Z,4.67
2019-05-30T09:29:26.366Z,3.20
2019-05-30T09:31:32.920Z,7.55
2019-05-30T09:33:40.840Z,10.18
2019-05-30T09:35:47.506Z,3.62
2019-05-30T09:37:54.286Z,5.42
2019-05-30T09:40:00.940Z,5.75
2019-05-30T09:42:08.603Z,8.58
2019-05-30T09:44:15.096Z,7.25
2019-05-30T09:46:23.299Z,3.77
2019-05-30T09:48:30.411Z,4.03
2019-05-30T09:50:36.961Z,6.83
2019-05-30T09:52:44.021Z,6.87
2019-05-30T09:54:52.600Z,5.22
2019-05-30T09:56:59.148Z,4.80
2019-05-30T09:59:05.853Z,6.42
2019-05-30T10:01:12.517Z,5.67
2019-05-30T10:03:19.154Z,7.10
2019-05-30T10:05:26.559Z,6.20
2019-05-30T10:07:33.177Z,6.05
2019-05-30T10:09:39.656Z,4.58
2019-05-30T10:11:47.202Z,4.17
2019-05-30T10:13:53.989Z,6.95
2019-05-30T10:16:00.455Z,3.50
2019-05-30T10:18:07.064Z,5.85
2019-05-30T10:20:14.572Z,2.80
2019-05-30T10:22:21.018Z,2.55
2019-05-30T10:24:28.328Z,4.33
2019-05-30T10:26:34.828Z,6.75
2019-05-30T10:28:41.357Z,5.72
2019-05-30T10:30:53.414Z,3.52
2019-05-30T10:32:56.140Z,8.80
2019-05-30T10:35:02.796Z,2.52
2019-05-30T10:37:09.341Z,3.92
2019-05-30T10:39:15.807Z,5.03
2019-05-30T10:41:22.277Z,6.97
2019-05-30T10:43:29.684Z,2.87
2019-05-30T10:45:38.636Z,4.28
2019-05-30T10:47:45.791Z,4.92
2019-05-30T10:49:53.536Z,2.93
2019-05-30T10:52:00.274Z,5.85
2019-05-30T10:54:06.824Z,7.00
2019-05-30T10:56:13.308Z,5.65
2019-05-30T10:58:19.953Z,6.17
2019-05-30T11:00:47.266Z,5.20
2019-05-30T11:02:55.000Z,4.70
2019-05-30T11:05:01.685Z,4.40
2019-05-30T11:07:33.869Z,4.92
2019-05-30T11:09:48.703Z,4.22
2019-05-30T11:11:55.351Z,2.22
2019-05-30T11:14:01.942Z,7.60
2019-05-30T11:16:08.561Z,3.00
2019-05-30T11:18:15.247Z,7.65
2019-05-30T11:20:22.678Z,8.63
2019-05-30T11:22:29.360Z,5.33
2019-05-30T11:24:36.030Z,3.33
2019-05-30T11:26:42.571Z,6.40
2019-05-30T11:28:50.443Z,6.92
2019-05-30T11:30:57.158Z,7.87
2019-05-30T11:33:03.699Z,10.03
2019-05-30T11:35:10.537Z,2.85
2019-05-30T11:37:18.754Z,3.50
2019-05-30T11:39:25.160Z,2.55
2019-05-30T11:41:31.596Z,7.50
2019-05-30T11:43:37.995Z,3.98
2019-05-30T11:45:44.564Z,5.25
2019-05-30T11:47:51.748Z,3.75
2019-05-30T11:50:00.357Z,5.67
2019-05-30T11:52:08.266Z,6.25
2019-05-30T11:54:14.677Z,3.05
2019-05-30T11:56:21.164Z,4.78
2019-05-30T11:58:27.637Z,7.03
2019-05-30T12:00:34.438Z,4.03
2019-05-30T12:02:40.839Z,5.10
2019-05-30T12:04:47.353Z,3.47
2019-05-30T12:06:54.677Z,1.55
2019-05-30T12:09:01.349Z,6.45
2019-05-30T12:11:09.741Z,2.15
2019-05-30T12:13:16.140Z,2.80
2019-05-30T12:15:24.254Z,2.55
2019-05-30T12:17:30.779Z,2.37
2019-05-30T12:19:38.392Z,4.03
2019-05-30T12:21:44.876Z,3.25
2019-05-30T12:23:54.280Z,4.83
2019-05-30T12:26:00.710Z,3.30
2019-05-30T12:28:07.872Z,2.75
2019-05-30T12:30:15.767Z,3.30
2019-05-30T12:32:22.156Z,5.03
2019-05-30T12:34:28.545Z,3.83
2019-05-30T12:36:35.087Z,2.52
2019-05-30T12:38:41.547Z,8.43
2019-05-30T12:40:48.022Z,6.58
2019-05-30T12:42:57.645Z,3.80
2019-05-30T12:45:07.038Z,3.25
2019-05-30T12:47:12.153Z,2.92
2019-05-30T12:49:18.627Z,2.58
2019-05-30T12:51:25.161Z,1.80
2019-05-30T12:53:31.575Z,2.12
2019-05-30T12:55:38.174Z,2.30
2019-05-30T12:57:44.770Z,3.20
2019-05-30T12:59:51.310Z,5.95
2019-05-30T13:01:58.958Z,1.75
2019-05-30T13:04:07.360Z,5.10
2019-05-30T13:06:14.082Z,5.90
2019-05-30T13:08:21.961Z,4.62
2019-05-30T13:10:28.962Z,1.77
2019-05-30T13:12:35.625Z,3.25
2019-05-30T13:14:42.090Z,5.50
2019-05-30T13:16:48.681Z,4.17
2019-05-30T13:18:55.910Z,4.10
2019-05-30T13:21:02.573Z,15.83
2019-05-30T13:23:09.205Z,4.25
2019-05-30T13:25:18.251Z,4.40
2019-05-30T13:27:24.864Z,5.95
2019-05-30T13:29:31.334Z,3.37
2019-05-30T13:31:37.836Z,2.17
2019-05-30T13:33:44.324Z,5.70
2019-05-30T13:35:50.807Z,4.20
2019-05-30T13:37:57.567Z,5.22
2019-05-30T13:40:23.608Z,5.90
2019-05-30T13:42:16.770Z,2.52
2019-05-30T13:44:23.237Z,1.87
2019-05-30T13:46:29.734Z,5.35
2019-05-30T13:48:36.190Z,3.95
2019-05-30T13:50:43.481Z,3.52
2019-05-30T13:52:50.090Z,5.25
2019-05-30T13:54:56.556Z,2.15
2019-05-30T13:57:05.808Z,5.28
2019-05-30T13:59:12.606Z,2.75
2019-05-30T14:01:19.223Z,5.60
2019-05-30T14:03:25.758Z,4.20
2019-05-30T14:05:32.365Z,3.12
2019-05-30T14:07:38.977Z,2.50
2019-05-30T14:09:45.468Z,4.28
2019-05-30T14:11:51.878Z,4.90
2019-05-30T14:13:58.407Z,7.00
2019-05-30T14:16:04.948Z,5.42
2019-05-30T14:18:11.432Z,3.22
2019-05-30T14:20:19.345Z,4.05
2019-05-30T14:22:25.931Z,4.20
2019-05-30T14:24:32.476Z,5.42
2019-05-30T14:26:39.012Z,4.35
2019-05-30T14:28:45.592Z,2.65
2019-05-30T14:30:52.095Z,4.97
2019-05-30T14:32:58.725Z,3.40
2019-05-30T14:35:08.465Z,1.65
2019-05-30T14:37:15.112Z,6.70
2019-05-30T14:39:21.796Z,8.25
2019-05-30T14:41:28.230Z,4.90
2019-05-30T14:43:34.680Z,7.15
2019-05-30T14:45:41.223Z,4.62
2019-05-30T14:47:48.602Z,4.50
2019-05-30T14:49:54.994Z,3.27
2019-05-30T14:52:02.698Z,8.68
2019-05-30T14:54:09.143Z,7.92
2019-05-30T14:56:15.610Z,4.37
2019-05-30T14:58:22.080Z,12.73
2019-05-30T15:00:28.620Z,3.90
2019-05-30T15:02:35.093Z,4.08
2019-05-30T15:04:41.591Z,4.30
2019-05-30T15:06:48.048Z,9.03
2019-05-30T15:08:54.695Z,5.55
2019-05-30T15:11:01.200Z,7.25
2019-05-30T15:13:07.617Z,10.65
2019-05-30T15:15:18.457Z,8.50
2019-05-30T15:17:24.666Z,6.60
2019-05-30T15:19:32.660Z,2.70
2019-05-30T15:21:39.152Z,3.33
2019-05-30T15:23:45.608Z,2.52
2019-05-30T15:25:52.251Z,2.98
2019-05-30T15:27:58.651Z,5.28
2019-05-30T15:30:08.405Z,1.70
2019-05-30T15:32:15.089Z,5.15
2019-05-30T15:34:21.616Z,4.22
2019-05-30T15:36:28.162Z,2.52
2019-05-30T15:38:34.636Z,5.55
2019-05-30T15:40:41.133Z,3.85
2019-05-30T15:42:47.744Z,4.05
2019-05-30T15:44:54.206Z,5.83
2019-05-30T15:47:00.631Z,4.75
2019-05-30T15:49:08.083Z,8.55
2019-05-30T15:51:14.876Z,6.47
2019-05-30T15:53:21.490Z,4.87
2019-05-30T15:55:28.009Z,4.50
2019-05-30T15:57:34.426Z,4.20
2019-05-30T15:59:40.822Z,3.02
2019-05-30T16:01:47.266Z,4.28
2019-05-30T16:03:53.803Z,3.25
2019-05-30T16:06:00.272Z,5.03
2019-05-30T16:08:06.868Z,3.87
2019-05-30T16:10:14.873Z,2.62
2019-05-30T16:12:21.511Z,4.10
2019-05-30T16:14:29.303Z,8.20
2019-05-30T16:16:40.203Z,3.33
2019-05-30T16:18:43.800Z,2.92
2019-05-30T16:20:50.293Z,2.67
2019-05-30T16:22:56.893Z,5.28
2019-05-30T16:25:04.351Z,3.65
2019-05-30T16:27:10.921Z,4.05
2019-05-30T16:29:17.694Z,2.77
2019-05-30T16:31:24.393Z,2.45
2019-05-30T16:33:30.811Z,4.15
2019-05-30T16:35:37.486Z,7.53
2019-05-30T16:37:43.937Z,4.12
2019-05-30T16:40:04.527Z,3.00
2019-05-30T16:41:58.512Z,3.77
2019-05-30T16:44:05.054Z,4.25
2019-05-30T16:46:11.594Z,7.15
2019-05-30T16:48:18.386Z,7.30
2019-05-30T16:50:27.051Z,4.85
2019-05-30T16:52:33.590Z,6.05
2019-05-30T16:54:40.140Z,4.53
2019-05-30T16:56:46.844Z,2.58
2019-05-30T16:58:54.957Z,4.72
2019-05-30T17:01:01.453Z,6.37
2019-05-30T17:03:08.091Z,6.40
2019-05-30T17:05:15.832Z,4.00
2019-05-30T17:07:23.416Z,7.42
2019-05-30T17:09:29.928Z,7.33
2019-05-30T17:11:36.599Z,6.67
2019-05-30T17:13:43.072Z,4.05
2019-05-30T17:15:49.536Z,4.90
2019-05-30T17:17:56.022Z,4.75
2019-05-30T17:20:02.499Z,7.15
2019-05-30T17:22:09.000Z,5.72
2019-05-30T17:24:16.871Z,8.68
2019-05-30T17:26:27.408Z,4.78
2019-05-30T17:30:39.760Z,11.33
2019-05-30T17:32:46.224Z,5.17
2019-05-30T17:34:52.729Z,3.22
2019-05-30T17:36:59.189Z,5.12
2019-05-30T17:39:09.110Z,4.05
2019-05-30T17:41:15.567Z,3.08
2019-05-30T17:43:22.938Z,3.72
2019-05-30T17:45:30.670Z,8.28
2019-05-30T17:47:37.145Z,6.97
2019-05-30T17:49:43.603Z,6.67
2019-05-30T17:51:50.114Z,4.85
2019-05-30T17:53:56.497Z,5.35
2019-05-30T17:56:02.964Z,3.20
2019-05-30T17:58:10.419Z,8.08
2019-05-30T18:00:18.000Z,5.20
2019-05-30T18:02:24.486Z,6.35
2019-05-30T18:04:31.133Z,6.10
2019-05-30T18:06:37.593Z,7.62
2019-05-30T18:08:43.990Z,8.78
2019-05-30T18:10:53.686Z,7.05
2019-05-30T18:12:58.638Z,6.58
2019-05-30T18:15:09.449Z,9.33
2019-05-30T18:17:15.925Z,8.53
2019-05-30T18:19:25.185Z,6.37
2019-05-30T18:21:31.907Z,8.70
2019-05-30T18:23:38.334Z,6.58
2019-05-30T18:25:44.837Z,13.38
2019-05-30T18:27:51.241Z,8.65
2019-05-30T18:29:57.705Z,5.70
2019-05-30T18:32:04.175Z,8.30
2019-05-30T18:34:10.944Z,6.78
2019-05-30T18:36:18.451Z,10.35
2019-05-30T18:38:26.376Z,9.25
2019-05-30T18:40:37.243Z,8.20
2019-05-30T18:42:43.759Z,10.95
2019-05-30T18:44:50.324Z,11.15
2019-05-30T18:46:56.902Z,12.50
2019-05-30T18:49:03.482Z,9.38
2019-05-30T18:51:09.943Z,7.47
2019-05-30T18:53:16.392Z,12.13
2019-05-30T18:55:22.865Z,7.30
2019-05-30T18:57:29.299Z,8.08
2019-05-30T18:59:37.287Z,8.05
2019-05-30T19:01:44.224Z,10.00
2019-05-30T19:03:51.622Z,12.35
2019-05-30T19:05:58.095Z,11.60
2019-05-30T19:08:06.089Z,12.03
2019-05-30T19:10:13.689Z,9.53
2019-05-30T19:12:20.118Z,10.10
2019-05-30T19:14:29.735Z,8.40
2019-05-30T19:16:34.749Z,11.53
2019-05-30T19:18:41.385Z,9.83
2019-05-30T19:20:47.980Z,24.70
2019-05-30T19:22:54.429Z,11.20
2019-05-30T19:25:00.916Z,10.40
2019-05-30T19:27:07.459Z,8.65
2019-05-30T19:29:14.114Z,10.90
2019-05-30T19:31:20.850Z,10.88
2019-05-30T19:33:28.730Z,13.88
2019-05-30T19:35:35.479Z,14.55
2019-05-30T19:37:42.035Z,14.45
2019-05-30T19:39:48.513Z,13.32
2019-05-30T19:41:57.407Z,14.93
2019-05-30T19:46:13.195Z,21.75
2019-05-30T19:48:18.886Z,16.73
2019-05-30T19:50:25.427Z,14.47
2019-05-30T19:52:32.624Z,17.00
2019-05-30T19:54:40.212Z,16.93
2019-05-30T19:56:46.686Z,17.02
2019-05-30T19:58:54.067Z,22.58
2019-05-30T20:01:00.513Z,18.48
2019-05-30T20:03:07.180Z,20.23
2019-05-30T20:05:14.012Z,20.68
2019-05-30T20:07:20.547Z,21.15
2019-05-30T20:09:27.099Z,20.32
2019-05-30T20:11:33.568Z,25.55
2019-05-30T20:13:41.298Z,21.05
2019-05-30T20:15:48.035Z,26.30
2019-05-30T20:17:54.489Z,23.22
2019-05-30T20:20:00.971Z,25.23
2019-05-30T20:22:08.770Z,17.70
2019-05-30T20:24:15.332Z,18.82
2019-05-30T20:26:21.856Z,21.27
2019-05-30T20:28:28.327Z,17.37
2019-05-30T20:30:34.972Z,23.20
2019-05-30T20:32:41.906Z,21.27
2019-05-30T20:34:49.727Z,23.22
2019-05-30T20:36:56.628Z,19.85
2019-05-30T20:39:03.551Z,18.80
2019-05-30T20:41:10.105Z,20.90
2019-05-30T20:43:17.484Z,24.90
2019-05-30T20:45:24.801Z,17.75
2019-05-30T20:47:31.377Z,18.65
2019-05-30T20:49:39.081Z,17.35
2019-05-30T20:51:45.643Z,21.93
2019-05-30T20:53:54.749Z,20.43
2019-05-30T20:56:00.637Z,18.45
2019-05-30T20:58:07.119Z,17.07
2019-05-30T21:00:18.159Z,22.82
2019-05-30T21:02:28.980Z,17.32
2019-05-30T21:04:34.652Z,17.50
2019-05-30T21:06:43.023Z,17.20
2019-05-30T21:08:51.736Z,18.53
2019-05-30T21:11:03.213Z,20.02
2019-05-30T21:13:11.230Z,17.90
2019-05-30T21:15:18.178Z,17.57
2019-05-30T21:17:26.864Z,13.38
2019-05-30T21:19:33.437Z,12.98
2019-05-30T21:21:40.229Z,18.20
2019-05-30T21:23:46.917Z,18.95
2019-05-30T21:25:54.852Z,20.48
2019-05-30T21:28:01.307Z,19.45
2019-05-30T21:30:10.486Z,18.32
2019-05-30T21:32:18.065Z,17.07
2019-05-30T21:34:24.592Z,20.82
2019-05-30T21:36:31.070Z,18.80
2019-05-30T21:38:37.864Z,20.62
2019-05-30T21:40:44.613Z,16.55
2019-05-30T21:43:04.651Z,19.00
2019-05-30T21:44:59.361Z,16.23
2019-05-30T21:47:10.221Z,20.08
2019-05-30T21:49:16.770Z,19.12
2019-05-30T21:51:23.314Z,18.07
2019-05-30T21:53:31.026Z,16.60
2019-05-30T21:55:37.512Z,18.95
2019-05-30T21:57:44.080Z,21.42
2019-05-30T21:59:50.841Z,23.32
2019-05-30T22:01:57.811Z,20.27
2019-05-30T22:04:05.400Z,20.60
2019-05-30T22:06:11.971Z,22.45
2019-05-30T22:08:18.515Z,23.00
2019-05-30T22:10:26.319Z,28.02
2019-05-30T22:12:32.895Z,22.85
2019-05-30T22:14:39.354Z,22.42
2019-05-30T22:16:46.035Z,17.98
2019-05-30T22:18:52.664Z,22.85
2019-05-30T22:21:01.064Z,19.85
2019-05-30T22:23:10.779Z,21.68
2019-05-30T22:25:16.027Z,18.30
2019-05-30T22:27:22.555Z,19.52
2019-05-30T22:29:29.052Z,24.95
2019-05-30T22:31:35.793Z,20.25
2019-05-30T22:33:42.667Z,21.37
2019-05-30T22:35:49.351Z,21.17
2019-05-30T22:37:55.765Z,19.37
2019-05-30T22:40:02.346Z,20.08
2019-05-30T22:42:08.927Z,18.67
2019-05-30T22:44:15.343Z,19.27
2019-05-30T22:46:21.887Z,20.00
2019-05-30T22:48:28.497Z,17.87
2019-05-30T22:50:36.112Z,21.07
2019-05-30T22:52:42.713Z,19.73
2019-05-30T22:54:49.208Z,18.85
2019-05-30T22:56:57.015Z,16.93
2019-05-30T22:59:03.726Z,19.37
2019-05-30T23:01:10.157Z,18.02
2019-05-30T23:03:16.661Z,17.00
2019-05-30T23:05:24.313Z,27.48
2019-05-30T23:07:30.801Z,13.15
2019-05-30T23:09:37.348Z,18.40
2019-05-30T23:11:43.954Z,14.03
2019-05-30T23:13:50.531Z,16.70
2019-05-30T23:15:56.998Z,15.15
2019-05-30T23:18:03.533Z,21.52
2019-05-30T23:20:10.776Z,16.37
2019-05-30T23:22:17.314Z,15.98
2019-05-30T23:24:23.878Z,12.65
2019-05-30T23:26:30.556Z,15.18
2019-05-30T23:28:37.117Z,13.15
2019-05-30T23:30:43.695Z,16.32
2019-05-30T23:32:50.520Z,17.15
2019-05-30T23:34:58.674Z,12.65
2019-05-30T23:37:05.371Z,16.25
2019-05-30T23:39:11.807Z,13.43
2019-05-30T23:41:18.280Z,14.95
2019-05-30T23:43:24.706Z,12.25
2019-05-30T23:45:31.255Z,11.90
2019-05-30T23:47:37.805Z,13.72
2019-05-30T23:49:44.208Z,13.22
2019-05-30T23:51:51.863Z,13.30
2019-05-30T23:53:58.688Z,10.80
2019-05-30T23:56:05.239Z,15.15
2019-05-30T23:58:11.710Z,14.65
